Date,TemperatureHighF,TemperatureAvgF,TemperatureLowF,DewpointHighF,DewpointAvgF,DewpointLowF,HumidityHigh,HumidityAvg,HumidityLow,PressureMaxIn,PressureMinIn,WindSpeedMaxMPH,WindSpeedAvgMPH,GustSpeedMaxMPH,PrecipitationSumIn
2013-1-6,49.8,43.2,36.9,40.8,36.7,28.4,98,79,57,30.31,30.15,14,2,14,0.02
2013-1-7,50.4,37.1,27.1,32.7,27.9,22.4,88,70,43,30.40,30.30,12,2,13,0.00
2013-1-8,57.0,40.5,27.0,43.6,33.5,23.4,90,78,50,30.39,30.27,5,1,8,0.00
2013-1-9,57.2,51.7,47.7,53.0,48.8,43.4,96,90,83,30.43,30.31,7,1,8,0.11
2013-1-10,63.5,54.5,50.5,57.9,51.2,48.6,94,89,75,30.42,30.11,10,3,11,0.05
2013-1-11,68.9,64.0,61.2,63.9,60.2,55.8,96,88,76,30.14,30.06,14,3,14,0.50
2013-1-12,69.6,65.2,61.7,65.2,62.4,58.3,96,91,80,30.12,30.00,5,1,7,0.05
2013-1-13,68.5,62.7,51.8,63.3,59.5,48.4,94,89,78,30.08,29.95,11,2,13,1.33
2013-1-14,51.1,42.7,38.1,48.0,40.9,36.2,97,93,86,30.27,29.41,13,4,14,1.68
2013-1-15,44.2,42.0,38.8,43.4,40.8,38.1,97,96,94,30.20,29.42,10,2,10,1.87
2013-1-16,49.8,45.2,41.9,46.9,43.4,39.6,98,93,86,30.10,29.95,6,1,11,0.12
2013-1-17,44.1,40.9,36.5,42.0,34.6,23.1,93,79,57,30.37,29.81,21,7,30,0.21
2013-1-18,53.4,37.1,27.3,32.0,25.8,15.3,92,67,25,30.58,30.38,8,1,9,0.00
2013-1-19,56.3,38.2,25.5,36.6,28.2,22.2,92,71,34,30.46,30.23,8,2,10,0.00
2013-1-20,62.1,45.3,31.5,39.2,32.6,25.7,86,63,37,30.25,30.15,8,2,9,0.00
2013-1-21,49.8,37.0,27.1,31.1,19.8,10.1,90,55,23,30.28,30.14,14,2,14,0.00
2013-1-22,40.8,31.2,24.3,16.2,6.4,0.1,58,36,21,30.41,30.26,11,3,14,0.00
2013-1-23,52.9,38.8,31.5,35.8,19.5,7.3,85,47,31,30.41,30.18,9,1,11,0.00
2013-1-24,50.4,39.2,27.5,40.4,19.6,0.2,77,47,21,30.42,30.19,15,5,16,0.00
2013-1-25,35.4,33.3,29.5,33.1,24.2,5.7,91,71,33,30.40,29.43,8,1,8,0.27
2013-1-26,51.1,39.1,30.0,35.0,32.0,27.9,92,77,52,30.36,30.22,7,2,8,0.00
2013-1-27,51.1,41.7,31.6,38.4,31.6,26.3,85,68,55,30.46,30.36,9,2,9,0.00
2013-1-28,59.7,50.2,43.7,47.5,39.8,32.0,87,68,58,30.40,30.26,9,2,9,0.00
2013-1-29,58.5,51.9,43.0,54.0,48.5,41.1,94,88,80,30.28,29.89,2,0,3,0.00
2013-1-30,67.1,56.5,39.4,63.9,51.9,31.1,93,85,64,29.89,29.59,17,4,19,1.51
2013-1-31,49.1,40.4,34.9,30.9,23.1,13.8,69,51,27,30.15,29.87,21,5,21,0.00
2013-2-1,45.9,31.9,22.3,32.1,10.7,0.2,76,43,21,30.46,30.09,19,4,19,0.00
2013-2-2,37.6,30.0,21.0,33.5,21.9,12.9,85,72,58,30.41,30.13,8,2,10,0.05
2013-2-3,54.3,40.8,30.0,34.9,27.6,22.9,86,62,31,30.19,30.05,13,4,19,0.01
2013-2-4,49.6,37.8,25.9,31.5,26.2,20.9,85,64,42,30.19,30.01,8,1,8,0.00
2013-2-5,63.9,49.6,41.0,43.7,38.3,31.2,89,67,38,30.08,29.97,9,2,9,0.00
2013-2-6,64.9,46.3,31.8,42.6,34.3,29.1,93,68,30,30.25,30.08,6,1,8,0.00
2013-2-7,52.7,47.2,42.1,45.2,38.1,32.9,90,72,52,30.17,29.98,8,1,11,0.01
2013-2-8,56.7,46.9,38.7,47.6,38.8,28.3,92,75,49,30.30,29.94,13,4,18,0.04
2013-2-9,56.7,42.7,31.8,32.4,27.4,24.2,74,56,30,30.37,30.25,15,4,15,0.00
2013-2-10,56.5,48.0,41.0,49.5,37.8,27.1,91,70,33,30.27,30.04,12,2,14,0.74
2013-2-11,59.4,52.8,43.9,53.8,43.7,32.3,92,73,40,30.19,30.04,7,1,10,0.06
2013-2-12,52.0,45.8,36.1,40.3,33.5,28.5,88,64,41,30.20,29.92,11,2,14,0.07
2013-2-13,50.7,43.8,41.2,45.0,38.2,31.4,93,81,65,30.05,29.74,14,2,14,0.08
2013-2-14,60.8,45.6,33.1,37.4,32.4,27.3,83,62,34,30.12,30.03,10,2,13,0.00
2013-2-15,61.5,43.9,31.8,39.6,32.4,25.6,89,66,39,30.14,30.04,13,3,18,0.00
2013-2-16,41.4,34.0,27.1,28.7,16.5,4.1,71,50,26,30.22,30.07,17,5,18,0.00
2013-2-17,48.6,32.0,16.9,20.2,12.1,3.7,77,47,21,30.32,30.20,10,2,13,0.00
2013-2-18,62.4,40.7,23.2,30.8,22.5,17.4,79,53,27,30.34,30.03,15,3,19,0.00
2013-2-19,55.8,45.8,35.6,45.0,27.6,8.9,93,56,21,30.25,29.99,17,4,19,0.54
2013-2-20,43.5,35.2,26.4,21.3,13.9,6.2,72,44,22,30.30,30.21,9,2,11,0.00
2013-2-21,52.3,39.8,29.5,38.9,21.7,13.1,94,52,25,30.25,29.98,12,3,14,0.74
2013-2-22,50.9,46.2,40.3,43.9,42.3,38.7,95,87,74,30.13,30.03,6,1,11,0.24
2013-2-23,58.3,48.7,42.3,47.4,44.0,37.8,94,84,65,30.07,29.88,4,0,8,0.20
2013-2-24,60.4,44.5,31.6,37.7,30.2,24.6,88,61,26,30.11,29.97,7,1,12,0.00
2013-2-25,56.3,47.3,38.1,41.6,30.0,23.0,70,51,36,30.06,29.81,6,2,11,0.00
2013-2-26,51.3,46.0,41.7,45.0,40.8,34.0,93,83,61,29.80,29.57,9,1,17,0.83
2013-2-27,56.3,45.5,39.9,35.8,32.6,29.2,83,62,41,29.93,29.78,8,3,15,0.00
2013-2-28,41.9,39.2,37.4,29.2,25.7,23.2,66,58,53,30.06,29.89,8,2,16,0.00
2013-3-1,43.3,38.3,36.3,29.8,26.9,23.8,70,63,57,30.06,30.01,5,1,12,0.00
2013-3-2,34.5,33.8,32.5,22.9,22.1,19.8,65,62,59,30.12,30.10,6,3,13,0.00
2013-3-3,41.4,32.9,25.5,21.1,17.7,13.1,69,54,33,30.15,30.09,7,2,13,0.00
2013-3-4,55.0,39.8,24.3,31.4,22.3,15.7,75,53,24,30.22,30.00,4,0,11,0.00
2013-3-5,57.9,47.7,38.3,54.1,40.7,24.4,95,77,55,30.02,29.68,13,2,27,0.66
2013-3-6,43.5,36.3,33.4,27.5,22.4,17.0,72,57,48,30.28,29.96,11,4,18,0.00
2013-3-7,48.7,38.9,32.9,30.4,25.8,22.5,70,60,47,30.38,30.27,11,3,16,0.00
2013-3-8,57.9,41.3,29.8,29.6,24.2,15.8,78,55,21,30.40,30.29,11,2,19,0.00
2013-3-9,62.2,49.2,35.8,36.3,30.1,26.6,71,49,28,30.34,30.18,5,1,10,0.00
2013-3-10,73.0,58.3,45.5,43.1,34.6,28.4,70,44,21,30.19,30.00,8,2,19,0.00
2013-3-11,61.7,55.8,42.1,55.9,49.3,38.5,99,80,49,30.03,29.76,8,2,17,0.91
2013-3-12,59.5,46.1,39.0,39.2,32.1,26.1,84,61,30,30.16,29.95,7,2,14,0.00
2013-3-13,50.9,41.1,32.2,36.0,25.3,16.6,86,56,31,30.38,30.13,11,2,15,0.00
2013-3-14,54.7,39.2,27.0,37.7,20.2,13.8,89,50,21,30.44,30.28,6,1,13,0.01
2013-3-15,74.8,53.3,30.7,47.2,39.3,30.5,100,65,32,30.31,29.97,8,1,14,0.00
2013-3-16,79.0,66.0,56.8,51.2,46.1,42.9,65,50,31,29.97,29.85,9,2,19,0.00
2013-3-17,75.6,64.8,55.6,55.2,49.4,45.7,80,58,40,30.00,29.89,8,2,14,0.00
2013-3-18,61.5,56.8,51.8,57.9,54.1,49.2,100,91,74,29.94,29.78,8,1,13,0.76
2013-3-19,63.9,50.7,36.1,53.2,30.9,14.6,100,54,21,30.17,29.92,8,2,18,0.01
2013-3-20,60.4,47.9,38.3,32.3,19.7,9.2,71,35,21,30.18,29.96,9,2,19,0.00
2013-3-21,46.9,36.3,25.5,29.7,12.2,1.3,71,39,22,30.08,29.96,8,2,15,0.00
2013-3-22,47.3,39.5,32.0,37.2,21.8,15.2,84,49,36,30.10,30.02,5,1,8,0.00
2013-3-23,53.8,45.3,38.3,46.9,40.4,33.2,100,83,68,30.05,29.80,8,1,10,0.15
2013-3-24,60.3,49.9,42.6,53.9,45.7,30.4,100,87,54,29.87,29.46,12,2,26,1.13
2013-3-25,42.6,37.0,34.2,30.6,24.4,20.8,70,60,51,30.11,29.72,11,4,24,0.00
2013-3-26,41.7,36.4,33.1,30.8,26.1,23.1,83,66,54,30.35,30.10,8,2,13,0.00
2013-3-27,56.3,40.2,26.4,29.8,24.6,19.0,91,58,25,30.40,30.29,9,1,13,0.00
2013-3-28,61.7,44.9,28.2,33.9,28.7,24.0,92,58,27,30.40,30.27,11,1,17,0.00
2013-3-29,56.7,44.6,33.8,42.3,35.2,28.9,92,72,39,30.38,30.25,9,2,14,0.00
2013-3-30,65.5,51.3,42.8,55.6,46.2,41.9,100,85,49,30.26,30.02,5,1,9,0.31
2013-3-31,68.7,58.6,54.0,60.4,56.0,53.1,100,91,62,30.03,29.89,5,1,10,0.56
2013-4-1,70.0,56.5,40.8,55.7,44.2,35.8,100,69,34,30.11,29.93,8,1,14,0.00
2013-4-2,59.7,48.8,39.2,38.5,26.5,18.9,68,44,23,30.27,30.11,8,2,13,0.00
2013-4-3,57.6,50.1,41.0,31.4,24.2,16.9,55,37,24,30.27,30.17,11,3,18,0.00
2013-4-4,50.9,43.7,40.6,44.4,41.9,31.4,100,94,47,30.19,30.01,5,1,10,1.24
2013-4-5,69.6,53.2,42.6,47.4,40.9,32.2,100,69,28,30.13,30.01,10,2,14,0.07
2013-4-6,75.0,55.9,37.2,45.1,40.5,36.2,100,63,26,30.22,30.07,8,1,13,0.00
2013-4-7,77.9,62.5,48.2,50.1,45.5,40.5,85,57,28,30.20,30.06,7,1,12,0.00
2013-4-8,78.6,65.7,52.0,58.1,53.0,48.1,93,66,43,30.13,30.04,7,1,12,0.00
2013-4-9,84.4,67.6,51.1,60.6,55.3,50.8,100,68,41,30.22,30.05,6,1,19,0.00
2013-4-10,86.9,70.5,53.8,61.4,57.3,53.0,100,67,37,30.14,29.91,8,1,12,0.00
2013-4-11,80.8,69.5,61.5,67.5,60.3,56.2,100,74,52,29.93,29.55,8,1,14,0.93
2013-4-12,69.3,59.6,49.3,63.2,45.9,34.6,100,65,29,30.00,29.66,9,2,13,0.09
2013-4-13,76.6,58.4,41.4,47.6,40.0,28.4,100,59,19,30.10,30.00,5,0,11,0.00
2013-4-14,64.4,54.8,46.0,56.3,48.3,41.7,100,80,51,30.07,29.96,2,0,8,0.08
2013-4-15,79.9,65.4,55.0,59.7,56.8,54.2,100,77,46,30.13,29.96,5,1,11,0.00
2013-4-16,82.4,69.2,59.7,66.1,62.3,57.7,97,80,55,30.26,30.13,5,1,12,0.00
2013-4-17,88.9,69.5,62.2,67.7,63.6,57.6,100,84,45,30.24,30.10,14,1,27,0.18
2013-4-18,85.1,70.5,57.6,67.7,59.7,55.1,100,73,40,30.10,29.84,8,2,16,0.01
2013-4-19,74.3,58.6,44.6,66.2,49.4,32.7,100,72,52,30.15,29.71,7,2,14,1.12
2013-4-20,65.3,50.3,33.8,40.5,31.5,23.1,99,55,22,30.31,30.15,8,1,16,0.00
2013-4-21,71.6,55.8,40.3,44.9,36.9,31.0,92,53,24,30.40,30.25,6,1,14,0.00
2013-4-22,75.6,57.6,41.4,48.8,43.4,37.3,100,65,27,30.36,30.15,5,0,10,0.00
2013-4-23,77.2,60.9,44.6,52.3,46.8,37.0,100,65,35,30.25,30.05,4,1,11,0.00
2013-4-24,71.2,60.5,49.1,63.5,53.3,40.8,94,77,64,30.27,30.04,6,2,14,0.05
2013-4-25,70.3,54.3,39.9,41.4,35.3,20.6,86,54,16,30.38,30.26,8,2,14,0.00
2013-4-26,75.7,57.2,39.4,52.7,39.6,30.7,100,58,23,30.42,30.28,7,2,13,0.24
2013-4-27,56.8,53.7,51.4,55.8,53.2,51.2,100,98,94,30.40,30.13,5,1,9,1.05
2013-4-28,61.5,57.9,53.2,60.4,57.4,52.8,100,98,95,30.15,29.94,4,1,11,1.71
2013-4-29,77.4,64.2,55.6,59.1,56.5,50.9,100,79,44,30.06,29.96,5,1,11,0.00
2013-4-30,82.0,64.4,47.7,59.8,54.2,47.4,100,74,34,30.11,29.99,5,1,11,0.00
2013-5-1,78.8,66.5,54.0,62.1,57.7,53.1,100,76,49,30.21,30.11,4,1,8,0.00
2013-5-2,78.1,65.6,52.9,61.6,56.8,52.8,100,75,50,30.21,30.12,4,1,11,0.00
2013-5-3,74.1,63.3,55.6,60.2,56.7,54.3,100,81,53,30.15,29.98,4,1,10,0.01
2013-5-4,63.9,55.0,51.8,56.9,53.8,51.8,100,96,68,29.99,29.91,4,0,12,2.96
2013-5-5,67.8,53.6,47.5,54.1,49.9,46.6,100,89,51,29.93,29.78,6,1,11,1.26
2013-5-6,60.8,52.1,47.3,53.3,50.2,46.8,100,93,66,29.95,29.81,3,1,9,0.25
2013-5-7,75.7,59.9,45.5,55.1,50.6,44.7,100,76,39,30.02,29.92,7,1,13,0.00
2013-5-8,79.3,64.8,53.2,62.1,56.6,52.8,100,77,44,30.09,29.99,5,1,8,0.00
2013-5-9,86.0,69.2,53.8,62.8,57.7,53.0,100,72,35,30.14,30.04,7,1,12,0.00
2013-5-10,76.3,67.0,56.3,62.8,59.1,56.0,100,78,54,30.10,29.97,5,1,11,0.00
2013-5-11,80.4,68.8,57.9,68.2,60.1,50.8,91,75,54,30.04,29.92,7,1,13,0.19
2013-5-12,69.3,58.7,46.6,53.2,37.7,24.2,93,51,22,30.19,30.03,8,2,14,0.00
2013-5-13,72.0,55.8,38.7,42.2,36.0,23.2,95,55,17,30.29,30.17,8,1,13,0.00
2013-5-14,84.9,63.9,42.1,58.8,49.8,41.2,100,65,35,30.27,30.08,7,1,17,0.00
2013-5-15,89.6,77.1,65.7,61.2,57.0,52.8,74,52,32,30.13,30.03,7,2,13,0.00
2013-5-16,88.2,72.0,59.2,64.3,60.0,57.2,95,69,38,30.11,29.99,6,1,12,0.00
2013-5-17,81.5,69.9,61.2,67.6,63.1,58.1,100,80,56,30.13,30.03,5,0,7,0.11
2013-5-18,79.3,70.8,65.1,71.8,67.7,64.9,100,90,72,30.09,30.01,4,1,9,0.54
2013-5-19,72.1,67.3,59.9,70.0,66.2,59.6,100,96,92,30.15,29.97,7,1,12,1.67
2013-5-20,88.3,70.3,57.4,70.9,64.0,57.1,100,83,50,30.15,30.02,4,1,10,0.00
2013-5-21,91.8,73.6,61.0,72.4,66.1,61.0,100,80,48,30.08,29.92,8,1,11,0.00
2013-5-22,87.3,71.9,64.4,71.2,67.2,64.1,100,87,49,30.00,29.88,6,1,11,0.51
2013-5-23,85.6,72.4,61.2,69.8,61.2,53.8,100,72,38,30.06,29.94,10,2,16,0.01
2013-5-24,76.3,66.2,54.9,56.1,49.9,40.8,92,59,30,30.30,30.06,10,2,16,0.00
2013-5-25,80.8,63.6,47.3,54.1,47.8,41.7,100,61,28,30.37,30.20,7,1,11,0.00
2013-5-26,83.5,66.6,51.3,58.5,53.4,49.6,100,67,34,30.31,30.18,6,1,11,0.00
2013-5-27,88.5,71.2,55.0,63.8,59.2,54.2,100,69,40,30.25,30.11,4,1,9,0.00
2013-5-28,90.1,75.3,61.7,66.4,62.4,58.9,100,68,38,30.21,30.11,4,1,10,0.00
2013-5-29,90.1,75.4,63.0,67.7,63.1,59.2,93,69,40,30.25,30.13,4,1,15,0.00
2013-5-30,88.0,75.4,64.6,68.0,65.5,63.3,96,73,49,30.25,30.12,7,1,15,0.00
2013-5-31,89.6,75.7,65.3,69.4,66.5,64.5,97,75,48,30.21,30.07,6,1,11,0.00
2013-6-1,86.5,78.9,69.8,76.8,69.2,65.1,87,73,57,30.11,29.99,4,1,11,0.01
2013-6-2,84.7,84.7,84.7,71.3,71.3,71.3,64,64,64,30.02,29.91,2,2,3,0.00
2013-6-5,71.2,68.8,67.1,68.4,67.8,66.2,100,97,84,29.94,29.92,2,0,3,0.01
2013-6-6,85.3,74.5,66.0,71.8,69.0,65.8,100,85,58,29.93,29.74,6,1,8,0.01
2013-6-7,87.8,72.4,66.0,71.7,68.4,65.2,100,89,50,29.87,29.72,4,1,8,0.12
2013-6-8,87.4,74.2,63.5,69.2,65.8,60.9,100,78,45,30.05,29.86,4,1,11,0.00
2013-6-9,86.9,72.4,65.5,73.0,68.9,65.0,100,89,59,30.09,29.95,5,1,11,1.04
2013-6-10,88.5,75.7,68.5,70.6,67.5,62.4,100,78,45,29.98,29.88,7,2,11,0.50
2013-6-11,93.0,79.7,68.5,74.4,70.0,66.2,100,76,44,30.03,29.95,5,1,11,0.14
2013-6-12,95.4,81.9,70.5,76.7,73.1,69.7,100,77,47,30.07,29.95,5,1,11,0.00
2013-6-13,93.2,81.5,73.0,75.2,71.2,65.2,92,72,53,29.95,29.76,8,2,18,0.00
2013-6-14,86.2,74.9,61.5,66.0,60.9,56.4,88,64,37,30.02,29.88,8,2,14,0.00
2013-6-15,89.8,75.4,61.3,65.7,62.7,59.3,94,68,42,30.12,30.02,4,1,9,0.00
2013-6-16,91.6,75.0,64.6,72.6,67.5,64.3,100,80,44,30.13,29.99,6,1,11,0.40
2013-6-17,87.4,73.9,68.5,74.5,70.1,67.9,100,89,56,30.06,29.92,4,1,9,0.52
2013-6-18,83.8,74.0,68.2,74.2,69.6,66.1,100,87,65,29.95,29.86,7,1,14,0.61
2013-6-19,89.1,74.7,63.0,70.4,65.7,62.1,100,76,43,30.07,29.94,4,1,11,0.00
2013-6-20,91.0,74.7,65.1,71.9,67.5,64.0,100,81,43,30.19,30.06,4,1,54,0.71
2013-6-21,90.1,75.8,66.9,72.4,67.9,61.7,100,79,41,30.25,30.14,4,1,8,0.01
2013-6-22,89.8,77.5,67.1,70.6,66.0,59.6,100,71,38,30.23,30.08,7,1,11,0.00
2013-6-23,91.6,77.2,65.5,72.5,68.3,65.2,100,76,45,30.19,30.07,4,1,10,0.00
2013-6-24,92.5,78.5,68.4,73.1,70.3,66.9,100,78,47,30.22,30.07,4,1,10,0.00
2013-6-25,92.3,79.5,71.1,75.3,71.8,66.2,95,79,46,30.16,30.00,5,1,11,0.00
2013-6-26,94.1,82.0,71.2,74.1,71.9,68.2,100,74,47,30.06,29.89,6,1,13,0.00
2013-6-27,93.0,81.2,74.3,76.2,72.3,68.2,100,75,53,29.95,29.81,7,2,16,0.27
2013-6-28,94.5,78.6,69.4,75.3,71.4,68.0,100,81,49,29.86,29.67,11,1,21,0.15
2013-6-29,91.2,78.4,68.2,73.0,66.2,57.3,100,71,35,29.74,29.66,6,1,12,0.06
2013-6-30,92.1,77.0,64.0,67.6,63.5,56.0,100,68,31,29.83,29.69,5,1,11,0.32
2013-7-1,85.8,71.1,63.5,72.0,67.1,62.7,100,88,60,29.91,29.79,4,1,12,0.76
2013-7-2,87.4,72.9,67.1,72.2,68.7,64.7,100,88,53,30.05,29.91,5,1,14,0.12
2013-7-3,75.2,71.0,68.2,72.1,69.6,67.2,100,95,84,30.15,30.05,3,0,6,0.17
2013-7-4,78.3,71.1,68.4,74.8,69.8,68.1,100,96,86,30.15,30.05,5,0,8,1.15
2013-7-5,75.6,72.2,69.4,73.0,70.5,68.3,100,94,86,30.18,30.08,4,1,11,0.37
2013-7-6,73.4,71.0,69.1,72.5,70.0,68.4,100,96,91,30.14,30.10,4,0,7,2.17
2013-7-7,83.8,73.8,68.5,75.3,71.3,68.0,100,92,67,30.17,30.09,4,0,7,1.82
2013-7-8,92.1,76.9,69.8,75.7,71.8,68.9,100,86,49,30.20,30.09,4,1,6,0.59
2013-7-9,95.0,79.9,72.7,78.9,74.3,70.2,100,85,47,30.17,30.05,4,1,8,0.05
2013-7-10,91.9,78.5,70.3,77.8,73.5,66.7,100,86,59,30.09,29.93,6,1,14,0.28
2013-7-11,89.2,76.1,70.5,75.9,71.8,69.4,100,88,55,30.00,29.88,4,1,8,0.24
2013-7-12,88.0,76.9,67.8,72.5,67.7,62.6,100,76,44,29.98,29.90,7,2,15,0.01
2013-7-13,87.8,74.6,62.8,71.7,67.2,61.5,100,79,53,30.07,29.95,5,1,14,0.00
2013-7-14,90.0,77.0,70.3,75.0,71.5,69.2,97,84,54,30.19,30.05,5,1,11,0.14
2013-7-15,91.0,77.9,69.3,73.9,70.6,67.2,100,81,47,30.29,30.19,7,1,14,0.07
2013-7-16,94.5,80.4,69.6,76.5,71.8,68.5,100,78,47,30.32,30.22,5,1,12,0.04
2013-7-17,96.4,81.6,71.1,75.8,72.2,69.1,100,76,44,30.29,30.14,6,1,12,0.02
2013-7-18,94.6,81.0,71.1,74.9,71.2,67.0,95,74,45,30.23,30.04,5,1,9,0.01
2013-7-19,96.3,82.3,72.5,75.9,71.8,65.6,97,74,38,30.12,29.96,5,1,10,0.09
2013-7-20,96.1,81.3,71.1,74.8,71.7,66.3,96,75,40,30.03,29.91,5,1,13,0.00
2013-7-21,91.4,78.8,72.9,74.4,72.3,69.7,95,82,54,30.03,29.93,4,1,11,0.08
2013-7-22,87.8,76.9,71.1,73.8,70.5,67.2,95,81,56,30.00,29.86,8,1,14,0.01
2013-7-23,86.7,77.7,72.1,75.2,71.3,68.6,91,81,64,29.95,29.82,6,1,11,0.01
2013-7-24,89.1,77.5,70.7,75.7,70.3,61.9,95,80,52,29.90,29.83,8,1,15,0.01
2013-7-25,89.4,76.4,64.6,69.3,65.6,62.6,97,72,43,30.04,29.90,5,1,11,0.00
2013-7-26,92.1,76.1,62.6,71.6,65.2,60.6,95,71,43,30.08,29.97,6,1,9,0.00
2013-7-27,90.3,77.6,69.6,72.9,67.8,61.7,92,74,41,30.00,29.88,5,1,11,0.00
2013-7-28,89.1,76.6,68.4,69.5,66.2,60.9,93,72,49,30.08,29.93,4,1,10,0.00
2013-7-29,86.5,70.4,59.0,64.2,59.7,54.1,92,71,42,30.19,30.06,5,1,10,0.00
2013-7-30,90.9,75.1,62.8,69.9,63.9,59.6,93,71,36,30.23,30.10,4,1,8,0.00
2013-7-31,79.9,72.5,68.5,73.4,69.5,65.5,97,90,75,30.15,29.96,4,1,10,0.56
2013-8-1,89.1,78.7,71.8,74.0,69.1,64.7,96,75,46,30.00,29.94,7,1,13,0.00
2013-8-2,90.7,76.6,64.8,69.2,65.3,60.9,100,71,39,30.05,29.97,5,1,11,0.00
2013-8-3,87.3,75.9,66.7,73.0,68.9,65.0,96,80,56,30.06,29.99,5,1,8,0.00
2013-8-4,91.4,79.4,70.3,72.7,67.5,62.0,94,70,42,30.08,30.00,7,1,11,0.00
2013-8-5,90.7,75.9,62.2,68.7,62.5,57.6,91,66,35,30.09,29.97,4,1,8,0.00
2013-8-6,88.9,77.2,70.9,74.7,69.7,66.0,96,79,54,30.01,29.95,5,1,9,0.13
2013-8-7,87.3,75.0,71.1,75.7,71.5,67.8,97,89,65,30.03,29.95,6,0,14,0.08
2013-8-8,93.9,77.7,72.1,76.0,72.3,69.5,96,85,54,30.05,29.97,8,1,11,0.14
2013-8-9,91.9,77.8,71.1,81.1,73.4,69.9,97,87,57,30.08,29.98,5,1,12,0.87
2013-8-10,93.0,78.5,71.8,77.3,73.9,69.1,97,87,56,30.13,30.06,8,1,14,0.53
2013-8-11,93.6,80.5,74.5,75.2,73.3,65.4,96,80,48,30.15,30.06,5,1,9,0.00
2013-8-12,94.3,78.1,71.4,75.8,72.2,68.9,96,83,48,30.12,29.98,5,1,11,0.38
2013-8-13,89.8,77.9,71.2,75.2,70.3,66.6,96,79,49,30.00,29.89,4,1,12,0.56
2013-8-14,83.8,73.9,66.0,70.2,63.6,57.1,89,71,45,30.05,29.94,6,2,14,0.00
2013-8-15,81.3,70.4,64.2,67.4,60.1,56.0,82,70,51,30.08,30.01,4,1,6,0.00
2013-8-16,77.0,69.8,64.0,65.0,62.1,58.8,86,77,62,30.10,30.03,4,0,8,0.00
2013-8-17,75.9,69.5,66.6,66.4,64.0,62.5,94,83,66,30.13,30.07,3,0,6,0.07
2013-8-18,80.1,70.4,66.2,71.1,67.0,64.4,95,89,63,30.18,30.10,5,0,9,0.54
2013-8-19,84.9,73.1,68.9,70.3,68.6,67.0,97,87,58,30.15,30.05,4,0,6,0.40
2013-8-20,88.9,76.8,69.3,72.4,69.5,66.7,96,79,54,30.17,30.08,4,1,8,0.00
2013-8-21,83.3,74.6,70.5,71.7,70.1,65.8,93,86,65,30.21,30.11,4,0,8,1.46
2013-8-22,90.1,75.9,70.9,74.5,70.6,66.0,95,85,55,30.18,30.05,5,1,15,0.24
2013-8-23,91.2,76.8,69.3,72.9,69.2,67.1,96,80,47,30.10,29.99,8,1,17,0.18
2013-8-24,90.1,75.9,66.0,71.5,68.2,65.1,97,79,49,30.24,30.06,6,1,13,0.00
2013-8-25,88.5,75.6,64.9,69.1,64.9,61.0,96,72,43,30.35,30.24,4,0,8,0.00
2013-8-26,87.8,73.9,62.1,67.4,63.9,60.6,100,74,45,30.32,30.14,7,1,9,0.00
2013-8-27,91.0,74.3,-39.6,71.4,66.4,-74.9,97,79,10,30.17,30.04,12,1,8,0.00
2013-8-28,93.0,78.5,67.3,74.8,70.2,66.4,100,78,49,30.08,29.99,4,0,5,0.00
2013-8-29,96.1,81.1,69.3,74.1,71.2,68.1,96,75,46,30.04,29.94,4,1,8,0.00
2013-8-30,92.3,78.7,72.1,75.5,72.9,69.2,96,83,54,30.01,29.92,4,0,9,0.00
2013-8-31,95.9,79.1,72.5,77.2,73.0,69.4,96,84,44,29.98,29.85,5,1,9,0.33
2013-9-1,89.1,76.2,71.4,76.8,72.4,69.9,97,89,64,29.94,29.85,4,1,9,0.13
2013-9-2,88.2,77.3,70.7,74.1,71.5,69.5,97,83,55,29.97,29.85,4,1,10,0.01
2013-9-3,91.6,79.5,70.2,74.6,69.5,63.5,95,74,42,30.01,29.87,5,1,10,0.00
2013-9-4,89.8,74.5,62.2,67.8,64.8,61.4,100,75,44,30.12,30.00,5,1,8,0.00
2013-9-5,88.0,73.0,61.5,67.1,63.8,60.6,97,75,48,30.16,30.09,4,1,10,0.00
2013-9-6,90.1,74.0,61.2,68.4,64.6,61.0,100,76,45,30.17,30.06,6,1,9,0.19
2013-9-7,90.3,75.2,62.8,71.3,67.0,61.9,100,78,47,30.13,30.00,4,1,9,0.00
2013-9-8,91.8,77.0,65.3,73.3,69.6,65.2,100,80,51,30.03,29.95,4,1,7,0.00
2013-9-9,92.3,78.6,71.1,74.8,71.3,69.0,94,80,49,30.11,30.00,4,0,11,0.00
2013-9-10,93.6,79.2,69.1,74.3,70.2,66.5,97,77,45,30.22,30.11,4,1,8,0.00
2013-9-11,93.2,78.5,68.7,74.3,69.2,64.7,97,76,42,30.24,30.10,4,1,6,0.00
2013-9-12,91.6,78.5,69.4,72.9,69.3,66.4,95,76,46,30.11,29.92,5,1,11,0.00
2013-9-13,84.7,74.1,61.7,68.5,60.9,52.1,93,66,37,29.98,29.88,8,2,12,0.00
2013-9-14,82.0,66.0,54.1,58.6,53.8,49.3,90,67,40,30.07,29.97,8,1,14,0.00
2013-9-15,86.9,68.4,54.3,67.3,60.3,53.5,97,78,45,30.17,30.07,6,1,11,0.00
2013-9-16,87.8,71.7,58.3,67.1,62.1,58.0,100,75,44,30.17,30.08,6,1,8,0.00
2013-9-17,86.0,73.9,66.2,66.8,63.0,59.7,85,70,50,30.21,30.11,6,1,10,0.00
2013-9-18,83.8,71.9,65.5,64.4,61.4,57.8,88,71,50,30.23,30.11,6,1,17,0.00
2013-9-19,87.8,72.4,60.3,67.6,63.4,59.6,100,76,46,30.19,30.04,5,1,10,0.00
2013-9-20,90.7,74.3,62.6,69.0,64.9,61.5,97,76,41,30.08,29.87,4,1,11,0.00
2013-9-21,74.8,68.4,59.2,68.7,65.4,57.5,96,90,78,29.89,29.75,4,1,16,1.77
2013-9-22,78.8,64.3,50.7,59.3,55.3,50.5,100,76,44,29.92,29.83,8,1,17,0.01
2013-9-23,83.8,67.4,55.6,62.8,58.3,53.7,96,75,45,30.01,29.91,4,1,10,0.00
2013-9-24,73.6,65.8,59.0,65.0,62.1,58.2,100,88,71,30.03,29.89,2,0,5,0.00
2013-9-25,69.4,67.2,65.7,66.8,65.4,63.8,100,94,89,29.89,29.83,2,0,6,0.32
2013-9-26,82.2,70.0,62.2,68.7,64.3,61.0,100,84,51,30.02,29.88,5,1,11,0.00
2013-9-27,83.5,67.7,56.1,66.6,59.9,55.9,100,80,42,30.15,30.02,4,1,9,0.01
2013-9-28,81.0,66.3,55.0,66.8,59.2,54.2,100,81,46,30.22,30.09,3,0,8,0.00
2013-9-29,78.3,65.1,54.1,64.4,58.3,53.3,100,81,48,30.15,30.01,4,0,8,0.02
2013-9-30,79.5,65.4,55.9,64.0,59.1,55.7,100,82,49,30.09,29.99,5,1,12,0.00
2013-10-1,82.4,67.5,56.8,67.5,62.4,56.6,100,85,54,30.16,30.04,5,0,10,0.00
2013-10-2,86.5,71.7,61.3,70.2,65.1,61.0,100,82,47,30.17,30.05,5,0,6,0.00
2013-10-3,86.9,73.5,64.4,70.2,65.6,61.8,100,79,45,30.13,30.04,4,1,10,0.00
2013-10-4,84.2,69.9,59.5,69.5,64.8,59.3,100,86,56,30.17,30.07,3,0,8,0.00
2013-10-5,89.8,72.6,61.5,69.5,65.3,61.5,100,81,47,30.13,29.99,4,1,9,0.00
2013-10-6,86.0,71.0,59.7,69.9,65.9,56.8,100,85,57,30.01,29.81,7,1,13,0.22
2013-10-7,72.5,61.7,54.5,58.2,52.5,47.7,100,75,43,30.05,29.90,8,2,15,0.01
2013-10-8,77.4,62.8,54.3,59.0,51.9,46.7,88,69,46,30.13,30.04,6,2,18,0.00
2013-10-9,79.3,64.8,54.0,61.8,57.8,53.1,100,81,52,30.19,30.09,4,1,8,0.00
2013-10-10,84.0,66.0,53.6,64.7,57.8,52.8,100,78,41,30.15,30.03,6,1,13,0.00
2013-10-11,83.3,63.4,48.4,60.0,53.8,47.0,100,76,30,30.09,29.99,4,0,8,0.00
2013-10-12,83.3,64.2,50.0,63.3,56.1,49.7,100,79,39,30.12,30.02,4,1,8,0.00
2013-10-13,82.8,65.1,51.3,63.6,57.1,51.0,100,79,44,30.22,30.11,5,1,13,0.00
2013-10-14,83.1,67.2,55.2,66.7,60.4,54.4,100,81,48,30.22,30.08,5,1,11,0.00
2013-10-15,73.9,67.1,61.7,63.2,60.8,58.8,95,81,64,30.15,30.04,4,1,10,0.00
2013-10-16,75.0,65.2,61.0,64.8,61.1,58.5,100,87,66,30.06,29.95,4,0,8,0.04
2013-10-17,74.1,65.0,52.0,69.7,61.5,51.5,100,89,64,30.01,29.88,5,1,10,0.17
2013-10-18,71.6,55.5,45.1,57.4,49.3,44.3,100,82,46,30.07,29.95,6,1,12,0.00
2013-10-19,72.9,57.9,47.3,56.4,52.4,45.1,100,84,54,30.03,29.90,4,1,13,0.00
2013-10-20,68.0,49.0,36.5,50.1,41.7,35.7,100,80,36,30.10,30.01,6,1,10,0.00
2013-10-21,72.9,53.3,37.8,53.1,46.2,37.5,100,81,41,30.13,29.98,4,0,7,0.00
2013-10-22,69.8,59.6,51.3,56.0,52.8,49.6,100,80,54,30.01,29.86,4,0,8,0.00
2013-10-23,57.2,49.9,37.6,52.4,41.1,33.5,100,74,43,30.10,29.84,7,1,17,0.00
2013-10-24,62.1,48.1,36.9,43.9,40.4,35.2,100,77,49,30.27,30.09,8,1,14,0.00
2013-10-25,55.8,41.7,30.4,36.0,30.1,24.8,90,65,36,30.44,30.27,8,1,12,0.00
2013-10-26,62.6,43.3,26.6,41.7,33.7,25.6,100,74,34,30.34,30.12,7,1,11,0.00
2013-10-27,66.4,55.7,47.7,54.0,48.4,40.6,94,77,56,30.14,30.08,4,0,9,0.00
2013-10-28,61.9,56.0,48.9,58.6,54.5,48.7,100,95,85,30.26,30.11,3,0,5,0.01
2013-10-29,72.0,60.4,52.9,61.0,56.4,52.8,100,88,63,30.32,30.20,3,0,6,0.00
2013-10-30,81.3,64.3,53.8,62.9,57.5,53.0,100,81,43,30.27,30.11,4,0,8,0.00
2013-10-31,73.2,65.8,59.4,66.0,61.2,57.1,95,85,73,30.13,29.73,7,1,19,0.04
2013-11-1,75.0,64.2,48.9,66.6,55.9,46.3,100,77,42,29.84,29.69,7,1,11,0.58
2013-11-2,68.0,52.9,41.7,57.6,43.9,35.5,100,76,35,30.10,29.83,6,1,14,0.00
2013-11-3,61.7,49.3,38.7,44.2,41.1,36.6,100,76,42,30.28,30.09,7,1,12,0.00
2013-11-4,67.1,49.3,34.7,46.7,40.5,34.7,100,76,39,30.40,30.28,8,1,13,0.00
2013-11-5,65.8,52.9,42.6,48.0,43.7,39.8,100,74,42,30.43,30.29,4,0,6,0.00
2013-11-6,73.8,59.8,46.6,60.9,54.8,45.2,100,85,62,30.30,30.06,5,0,13,0.04
2013-11-7,63.3,53.3,43.3,61.4,44.4,30.6,100,74,38,30.28,30.02,7,2,18,0.41
2013-11-8,59.0,45.0,34.3,35.4,29.8,22.2,90,59,25,30.38,30.25,8,1,14,0.00
2013-11-9,58.5,44.1,30.0,44.3,36.3,29.8,100,77,45,30.33,30.22,5,0,10,0.00
2013-11-10,72.1,53.6,39.9,47.6,40.6,31.9,100,66,26,30.31,30.21,5,1,11,0.00
2013-11-11,67.1,49.4,32.7,38.4,32.9,29.4,92,58,25,30.32,30.14,5,0,11,0.00
2013-11-12,54.0,43.2,31.6,44.3,31.4,14.2,88,64,39,30.52,30.12,11,3,16,0.00
2013-11-13,47.1,33.9,25.7,24.1,18.4,10.3,84,55,24,30.62,30.44,8,1,13,0.00
2013-11-14,58.1,36.0,21.2,35.1,23.4,16.6,96,67,22,30.48,30.26,5,0,10,0.00
2013-11-15,50.9,40.9,30.0,44.1,37.1,26.0,100,87,60,30.27,30.13,3,0,4,0.22
2013-11-16,59.2,49.7,44.1,58.1,49.1,43.8,100,98,91,30.21,30.09,3,0,5,0.01
2013-11-17,67.6,61.6,56.7,67.7,60.8,56.0,100,97,88,30.09,29.85,4,0,8,0.86
2013-11-18,68.2,58.5,46.0,67.7,44.0,32.0,100,62,31,30.15,29.86,11,2,15,0.09
2013-11-19,55.0,46.2,39.7,35.0,30.7,23.9,77,56,31,30.22,30.11,11,2,18,0.00
2013-11-20,61.9,44.7,29.7,42.2,35.0,29.4,100,73,34,30.30,30.16,4,0,10,0.00
2013-11-21,63.1,55.5,48.6,52.9,46.5,38.8,87,72,62,30.34,30.24,2,0,7,0.01
2013-11-22,59.4,56.1,53.2,57.4,54.7,52.1,100,95,87,30.30,30.18,4,0,9,0.14
2013-11-23,54.1,47.2,34.2,52.4,39.3,19.4,95,75,50,30.38,30.19,8,3,18,0.00
2013-11-24,39.4,31.0,24.4,21.4,12.3,2.9,64,47,23,30.54,30.38,12,3,22,0.00
2013-11-25,44.1,34.9,26.2,32.9,19.8,10.1,97,57,25,30.45,30.19,4,0,8,0.01
2013-11-26,44.2,38.1,33.3,44.1,37.4,32.8,100,97,86,30.19,29.74,10,2,16,0.92
2013-11-27,38.8,32.7,24.4,36.3,22.6,13.7,91,67,51,30.30,29.82,10,3,24,0.00
2013-11-28,46.6,29.6,17.8,27.7,19.9,12.3,89,69,42,30.46,30.30,6,1,10,0.00
2013-11-29,52.2,34.3,21.7,35.3,25.1,19.6,95,73,34,30.55,30.44,6,1,12,0.00
2013-11-30,55.8,37.9,24.8,37.4,28.2,22.8,96,72,34,30.51,30.29,5,1,12,0.00
2013-12-1,56.1,42.2,26.4,41.2,33.8,24.4,96,74,49,30.30,29.99,4,0,9,0.00
2013-12-2,49.1,47.1,44.8,48.9,45.9,40.3,100,96,74,29.99,29.80,2,0,4,0.04
2013-12-3,53.6,50.6,48.0,53.2,50.5,47.8,100,99,97,29.88,29.81,2,0,4,0.02
2013-12-4,71.8,60.2,52.3,63.6,57.4,52.3,100,91,69,29.97,29.85,5,0,11,0.00
2013-12-5,74.7,67.8,61.7,67.0,64.7,60.3,100,90,76,30.02,29.90,4,1,8,0.01
2013-12-6,68.4,53.4,39.7,66.9,52.0,38.9,100,95,90,30.18,29.87,6,1,11,1.13
2013-12-7,41.9,39.0,37.0,38.9,35.0,32.8,94,86,78,30.38,30.18,8,4,16,0.00
2013-12-8,47.3,41.5,36.3,47.0,40.5,33.4,100,96,86,30.31,30.07,7,1,11,0.98
2013-12-9,55.9,47.5,41.2,49.9,45.2,39.2,100,92,80,30.15,30.02,4,1,10,0.41
2013-12-10,43.0,36.9,26.2,41.7,31.6,23.6,100,82,53,30.36,29.99,7,2,14,0.37
2013-12-11,53.4,34.9,22.5,33.2,25.6,20.5,95,72,34,30.44,30.32,3,0,8,0.00
2013-12-12,44.6,32.9,25.7,24.6,19.2,10.0,76,59,25,30.52,30.39,7,1,11,0.00
2013-12-13,45.1,33.4,20.7,30.8,23.3,17.7,88,69,40,30.41,30.13,3,0,4,0.00
2013-12-14,48.7,42.1,37.4,48.6,39.6,30.6,100,91,74,30.16,29.80,6,1,11,0.76
2013-12-15,44.6,36.5,30.4,39.6,29.7,25.9,87,76,66,30.22,29.90,7,2,15,0.00
2013-12-16,54.0,39.3,27.3,37.2,31.2,25.0,96,75,46,30.25,30.11,5,1,11,0.00
2013-12-17,61.3,47.2,36.3,38.4,33.7,28.0,82,61,41,30.24,30.03,8,2,18,0.00
2013-12-18,53.8,37.4,26.2,28.8,24.5,20.7,88,62,30,30.35,30.23,3,0,8,0.00
2013-12-19,60.3,40.3,25.7,34.4,27.9,22.1,91,66,27,30.30,30.13,4,0,11,0.00
2013-12-20,63.1,51.8,37.8,52.3,41.3,30.9,85,68,45,30.17,30.05,8,0,13,0.00
2013-12-21,68.5,60.1,55.4,66.2,58.0,51.9,100,93,85,30.05,29.80,5,1,13,0.12
2013-12-22,69.6,59.2,55.0,66.5,56.9,53.9,97,92,83,30.06,29.78,8,1,21,1.36
2013-12-23,55.0,42.9,30.6,54.2,37.3,25.4,100,81,66,30.34,30.03,9,2,17,0.01
2013-12-24,37.6,30.9,24.8,26.5,19.2,12.5,88,63,38,30.48,30.34,8,1,14,0.00
2013-12-25,47.5,31.0,19.2,27.9,20.8,13.8,86,68,40,30.44,30.30,6,0,14,0.00
2013-12-26,53.4,35.2,24.3,34.4,26.4,21.4,93,72,43,30.38,30.28,4,0,7,0.00
2013-12-27,57.2,35.3,23.4,33.2,24.0,16.6,93,68,23,30.45,30.34,4,0,6,0.00
2013-12-28,42.4,34.8,27.0,38.4,31.1,22.7,100,87,65,30.38,29.96,4,0,8,0.77
2013-12-29,50.7,43.0,37.2,46.1,41.1,36.2,100,94,75,30.04,29.87,4,0,7,0.37
2013-12-30,41.9,39.3,37.2,41.6,34.5,29.9,100,83,66,30.22,30.03,5,1,9,0.00
2013-12-31,43.0,34.4,28.4,33.3,27.3,24.4,94,77,51,30.44,30.21,5,1,11,0.00
2014-1-1,50.4,35.0,24.6,35.1,28.6,22.6,95,79,47,30.34,30.08,5,0,10,0.00
2014-1-2,47.7,37.8,23.0,46.9,31.9,9.4,100,80,54,30.23,29.79,13,2,24,0.31